createdAt,value
2017-07-22T00:00:41.994Z,18.60
2017-07-22T00:03:15.798Z,18.60
2017-07-22T00:05:50.451Z,18.40
2017-07-22T00:08:24.227Z,18.40
2017-07-22T00:10:57.862Z,18.40
2017-07-22T00:13:31.525Z,18.50
2017-07-22T00:16:05.335Z,18.60
2017-07-22T00:18:40.201Z,18.60
2017-07-22T00:21:14.759Z,18.70
2017-07-22T00:23:50.340Z,18.80
2017-07-22T00:26:24.159Z,18.90
2017-07-22T00:28:58.334Z,18.90
2017-07-22T00:31:32.953Z,18.70
2017-07-22T00:34:06.945Z,18.60
2017-07-22T00:36:43.820Z,18.60
2017-07-22T00:39:17.623Z,18.60
2017-07-22T00:41:51.480Z,18.70
2017-07-22T00:44:25.324Z,18.70
2017-07-22T00:46:58.986Z,18.70
2017-07-22T00:49:32.620Z,18.40
2017-07-22T00:52:06.349Z,18.50
2017-07-22T00:54:41.133Z,18.50
2017-07-22T00:57:14.862Z,18.60
2017-07-22T00:59:48.766Z,18.60
2017-07-22T01:02:23.227Z,18.40
2017-07-22T01:04:58.199Z,18.40
2017-07-22T01:07:34.358Z,18.40
2017-07-22T01:10:10.137Z,18.40
2017-07-22T01:12:45.199Z,18.30
2017-07-22T01:15:19.834Z,18.40
2017-07-22T01:17:59.963Z,18.40
2017-07-22T01:20:33.701Z,18.20
2017-07-22T01:23:07.420Z,18.00
2017-07-22T01:25:43.357Z,18.10
2017-07-22T01:28:17.225Z,18.30
2017-07-22T01:30:52.793Z,18.30
2017-07-22T01:33:26.551Z,17.90
2017-07-22T01:36:00.292Z,17.90
2017-07-22T01:38:33.936Z,17.80
2017-07-22T01:41:09.249Z,18.00
2017-07-22T01:43:43.254Z,18.00
2017-07-22T01:46:16.947Z,18.10
2017-07-22T01:48:51.511Z,18.00
2017-07-22T01:51:25.301Z,18.00
2017-07-22T01:54:01.740Z,17.90
2017-07-22T01:56:38.007Z,18.00
2017-07-22T01:59:11.881Z,17.90
2017-07-22T02:01:45.733Z,17.60
2017-07-22T02:04:20.434Z,17.70
2017-07-22T02:06:55.662Z,18.00
2017-07-22T02:09:29.327Z,18.00
2017-07-22T02:12:03.158Z,18.10
2017-07-22T02:14:37.693Z,17.90
2017-07-22T02:17:11.355Z,17.90
2017-07-22T02:19:45.198Z,18.00
2017-07-22T02:22:19.638Z,18.10
2017-07-22T02:24:53.465Z,18.10
2017-07-22T02:27:28.313Z,18.10
2017-07-22T02:30:03.305Z,18.10
2017-07-22T02:32:37.069Z,18.10
2017-07-22T02:35:13.650Z,18.20
2017-07-22T02:37:47.285Z,18.10
2017-07-22T02:40:21.170Z,18.00
2017-07-22T02:42:57.414Z,18.00
2017-07-22T02:45:31.485Z,18.00
2017-07-22T02:48:06.044Z,18.00
2017-07-22T02:50:39.806Z,18.00
2017-07-22T02:53:14.309Z,18.00
2017-07-22T02:55:48.165Z,18.00
2017-07-22T02:58:21.941Z,17.90
2017-07-22T03:00:56.485Z,17.80
2017-07-22T03:03:31.049Z,17.80
2017-07-22T03:06:05.112Z,17.80
2017-07-22T03:08:39.650Z,17.80
2017-07-22T03:11:14.257Z,17.80
2017-07-22T03:13:47.943Z,17.80
2017-07-22T03:16:22.904Z,17.60
2017-07-22T03:18:58.528Z,17.70
2017-07-22T03:21:32.447Z,17.70
2017-07-22T03:24:06.387Z,17.70
2017-07-22T03:26:40.237Z,17.60
2017-07-22T03:29:14.114Z,17.60
2017-07-22T03:31:47.977Z,17.60
2017-07-22T03:34:22.874Z,17.40
2017-07-22T03:36:56.943Z,17.30
2017-07-22T03:39:30.601Z,17.30
2017-07-22T03:42:04.567Z,17.20
2017-07-22T03:44:40.178Z,17.00
2017-07-22T03:47:14.001Z,16.90
2017-07-22T03:49:48.716Z,17.10
2017-07-22T03:52:22.639Z,17.10
2017-07-22T03:54:56.645Z,16.80
2017-07-22T03:57:31.162Z,17.10
2017-07-22T04:00:05.250Z,17.40
2017-07-22T04:02:39.111Z,17.50
2017-07-22T04:05:12.890Z,17.50
2017-07-22T04:07:47.556Z,17.60
2017-07-22T04:10:21.644Z,17.60
2017-07-22T04:12:55.486Z,17.50
2017-07-22T04:15:30.010Z,17.60
2017-07-22T04:18:03.795Z,17.60
2017-07-22T04:20:38.526Z,17.60
2017-07-22T04:23:12.449Z,17.60
2017-07-22T04:25:47.076Z,17.50
2017-07-22T04:28:21.558Z,17.30
2017-07-22T04:30:55.361Z,17.30
2017-07-22T04:33:29.286Z,17.50
2017-07-22T04:36:03.475Z,17.60
2017-07-22T04:38:38.101Z,17.80
2017-07-22T04:41:12.553Z,17.70
2017-07-22T04:43:46.470Z,17.70
2017-07-22T04:46:20.703Z,17.70
2017-07-22T04:48:54.694Z,17.80
2017-07-22T04:51:28.574Z,17.80
2017-07-22T04:54:02.582Z,17.90
2017-07-22T04:56:36.410Z,18.00
2017-07-22T04:59:10.213Z,17.90
2017-07-22T05:01:44.067Z,18.00
2017-07-22T05:04:18.636Z,18.10
2017-07-22T05:06:52.462Z,18.10
2017-07-22T05:09:27.458Z,18.00
2017-07-22T05:12:02.090Z,18.00
2017-07-22T05:14:36.732Z,18.10
2017-07-22T05:17:10.666Z,18.10
2017-07-22T05:19:44.817Z,18.00
2017-07-22T05:24:59.682Z,17.90
2017-07-22T05:27:34.380Z,17.90
2017-07-22T05:30:09.761Z,17.90
2017-07-22T05:32:43.795Z,17.90
2017-07-22T05:35:19.281Z,18.00
2017-07-22T05:37:53.378Z,17.90
2017-07-22T05:40:27.497Z,18.10
2017-07-22T05:43:01.480Z,18.10
2017-07-22T05:45:35.218Z,17.90
2017-07-22T05:48:09.838Z,18.20
2017-07-22T05:50:44.009Z,18.10
2017-07-22T05:53:17.913Z,18.20
2017-07-22T05:55:52.515Z,18.20
2017-07-22T05:58:26.389Z,18.20
2017-07-22T06:01:00.049Z,18.10
2017-07-22T06:03:34.729Z,18.20
2017-07-22T06:06:08.481Z,18.20
2017-07-22T06:08:43.047Z,18.00
2017-07-22T06:11:17.689Z,18.00
2017-07-22T06:13:51.685Z,18.00
2017-07-22T06:16:26.180Z,18.20
2017-07-22T06:19:00.102Z,18.20
2017-07-22T06:21:33.829Z,18.30
2017-07-22T06:24:08.704Z,18.30
2017-07-22T06:26:42.540Z,18.40
2017-07-22T06:29:16.396Z,18.40
2017-07-22T06:31:50.215Z,18.40
2017-07-22T06:34:23.972Z,18.50
2017-07-22T06:36:57.848Z,18.50
2017-07-22T06:39:31.521Z,18.50
2017-07-22T06:42:06.208Z,18.60
2017-07-22T06:44:39.891Z,18.60
2017-07-22T06:47:14.596Z,18.70
2017-07-22T06:49:49.056Z,18.80
2017-07-22T06:52:23.702Z,18.80
2017-07-22T06:54:57.333Z,18.80
2017-07-22T06:57:32.426Z,18.70
2017-07-22T07:00:06.067Z,18.70
2017-07-22T07:02:40.700Z,18.80
2017-07-22T07:05:14.641Z,18.80
2017-07-22T07:07:48.548Z,18.80
2017-07-22T07:10:22.231Z,18.90
2017-07-22T07:12:56.066Z,18.90
2017-07-22T07:15:29.811Z,18.90
2017-07-22T07:18:03.587Z,18.90
2017-07-22T07:20:37.261Z,18.90
2017-07-22T07:23:11.123Z,18.90
2017-07-22T07:25:44.883Z,18.90
2017-07-22T07:28:19.416Z,18.90
2017-07-22T07:30:53.827Z,18.90
2017-07-22T07:33:28.819Z,19.00
2017-07-22T07:36:02.683Z,19.00
2017-07-22T07:38:36.430Z,18.90
2017-07-22T07:41:10.363Z,18.90
2017-07-22T07:43:44.315Z,18.90
2017-07-22T07:46:18.903Z,19.10
2017-07-22T07:48:52.818Z,19.10
2017-07-22T07:51:27.389Z,19.00
2017-07-22T07:54:03.367Z,19.00
2017-07-22T07:56:37.451Z,19.10
2017-07-22T07:59:11.388Z,19.00
2017-07-22T08:01:45.231Z,19.20
2017-07-22T08:04:19.035Z,19.30
2017-07-22T08:06:52.929Z,19.40
2017-07-22T08:09:26.663Z,19.50
2017-07-22T08:12:00.855Z,19.60
2017-07-22T08:14:35.673Z,19.70
2017-07-22T08:17:09.472Z,19.70
2017-07-22T08:19:44.015Z,19.60
2017-07-22T08:22:17.722Z,19.60
2017-07-22T08:24:51.499Z,19.60
2017-07-22T08:27:25.630Z,19.60
2017-07-22T08:29:59.485Z,19.70
2017-07-22T08:32:33.335Z,19.70
2017-07-22T08:35:07.362Z,19.90
2017-07-22T08:37:41.478Z,19.90
2017-07-22T08:40:15.178Z,20.00
2017-07-22T08:42:49.065Z,20.20
2017-07-22T08:45:22.683Z,20.20
2017-07-22T08:47:56.368Z,20.30
2017-07-22T08:50:30.072Z,20.30
2017-07-22T08:53:03.676Z,20.30
2017-07-22T08:55:37.356Z,20.40
2017-07-22T08:58:11.179Z,20.60
2017-07-22T09:00:45.152Z,20.70
2017-07-22T09:03:19.775Z,20.90
2017-07-22T09:05:53.522Z,20.90
2017-07-22T09:08:28.207Z,21.10
2017-07-22T09:11:02.717Z,21.00
2017-07-22T09:13:36.528Z,21.00
2017-07-22T09:16:10.289Z,21.00
2017-07-22T09:18:44.180Z,20.80
2017-07-22T09:21:20.089Z,20.90
2017-07-22T09:23:54.452Z,20.90
2017-07-22T09:26:28.309Z,21.00
2017-07-22T09:29:03.174Z,21.20
2017-07-22T09:31:38.439Z,21.30
2017-07-22T09:34:13.161Z,21.30
2017-07-22T09:36:46.977Z,21.40
2017-07-22T09:39:21.539Z,21.60
2017-07-22T09:41:55.762Z,21.60
2017-07-22T09:44:30.369Z,21.50
2017-07-22T09:47:04.075Z,21.50
2017-07-22T09:49:55.495Z,21.90
2017-07-22T09:52:29.419Z,21.90
2017-07-22T09:55:03.207Z,22.30
2017-07-22T09:57:37.170Z,22.40
2017-07-22T10:00:11.491Z,22.30
2017-07-22T10:02:46.206Z,22.50
2017-07-22T10:05:20.938Z,22.40
2017-07-22T10:07:55.035Z,22.40
2017-07-22T10:10:29.241Z,22.60
2017-07-22T10:13:04.655Z,22.90
2017-07-22T10:15:39.026Z,23.00
2017-07-22T10:18:12.837Z,23.40
2017-07-22T10:20:46.757Z,23.20
2017-07-22T10:23:21.244Z,23.30
2017-07-22T10:25:54.972Z,23.30
2017-07-22T10:28:29.888Z,23.20
2017-07-22T10:31:04.389Z,23.10
2017-07-22T10:33:38.158Z,23.00
2017-07-22T10:36:11.892Z,23.00
2017-07-22T10:38:45.868Z,23.10
2017-07-22T10:41:21.208Z,23.70
2017-07-22T10:43:57.036Z,23.70
2017-07-22T10:46:30.973Z,23.60
2017-07-22T10:49:05.064Z,23.70
2017-07-22T10:51:39.866Z,24.20
2017-07-22T10:54:13.964Z,24.00
2017-07-22T10:56:47.891Z,24.40
2017-07-22T10:59:22.391Z,24.20
2017-07-22T11:01:57.604Z,24.30
2017-07-22T11:04:32.243Z,24.20
2017-07-22T11:07:07.719Z,24.00
2017-07-22T11:09:46.898Z,24.00
2017-07-22T11:12:21.693Z,23.70
2017-07-22T11:14:55.405Z,24.20
2017-07-22T11:17:29.293Z,24.50
2017-07-22T11:22:43.239Z,24.50
2017-07-22T11:25:18.021Z,24.10
2017-07-22T11:27:52.493Z,24.00
2017-07-22T11:30:28.599Z,25.50
2017-07-22T11:33:07.846Z,25.40
2017-07-22T11:35:44.724Z,25.90
2017-07-22T11:38:19.329Z,25.30
2017-07-22T11:40:54.739Z,25.40
2017-07-22T11:43:33.547Z,25.60
2017-07-22T11:46:07.520Z,25.60
2017-07-22T11:51:22.324Z,25.80
2017-07-22T11:53:56.549Z,25.80
2017-07-22T11:56:30.898Z,25.60
2017-07-22T11:59:07.196Z,25.50
2017-07-22T12:01:42.001Z,25.60
2017-07-22T12:04:17.580Z,25.80
2017-07-22T12:06:52.945Z,26.00
2017-07-22T12:09:27.730Z,25.60
2017-07-22T12:12:02.398Z,25.80
2017-07-22T12:14:36.861Z,25.80
2017-07-22T12:17:30.563Z,26.10
2017-07-22T12:20:04.852Z,26.00
2017-07-22T12:22:40.081Z,25.90
2017-07-22T12:25:15.310Z,26.00
2017-07-22T12:27:52.210Z,25.90
2017-07-22T12:30:27.000Z,26.00
2017-07-22T12:33:04.641Z,26.20
2017-07-22T12:35:39.786Z,26.00
2017-07-22T12:43:56.537Z,26.00
2017-07-22T12:46:30.186Z,25.90
2017-07-22T12:49:11.103Z,25.60
2017-07-22T12:51:44.908Z,26.20
2017-07-22T12:54:21.281Z,26.40
2017-07-22T12:56:57.088Z,26.40
2017-07-22T12:59:34.536Z,26.60
2017-07-22T13:02:11.675Z,26.60
2017-07-22T13:04:54.374Z,26.10
2017-07-22T13:07:27.945Z,26.10
2017-07-22T13:10:01.612Z,26.40
2017-07-22T13:12:35.335Z,26.50
2017-07-22T13:15:08.976Z,26.70
2017-07-22T13:17:43.538Z,26.60
2017-07-22T13:20:17.181Z,26.60
2017-07-22T13:22:51.663Z,27.00
2017-07-22T13:25:25.305Z,27.00
2017-07-22T13:27:58.999Z,27.20
2017-07-22T13:30:32.806Z,27.20
2017-07-22T13:33:07.317Z,27.20
2017-07-22T13:35:40.901Z,27.20
2017-07-22T13:38:14.529Z,27.20
2017-07-22T13:40:48.105Z,26.90
2017-07-22T13:43:21.713Z,27.00
2017-07-22T13:45:55.396Z,27.20
2017-07-22T13:48:28.976Z,27.80
2017-07-22T13:51:02.660Z,27.80
2017-07-22T13:53:36.173Z,27.70
2017-07-22T13:56:09.985Z,27.10
2017-07-22T13:58:43.500Z,27.30
2017-07-22T14:01:18.389Z,27.50
2017-07-22T14:04:14.600Z,27.50
2017-07-22T14:06:52.474Z,27.40
2017-07-22T14:09:27.778Z,27.50
2017-07-22T14:12:01.482Z,27.30
2017-07-22T14:14:35.317Z,27.50
2017-07-22T14:17:09.186Z,27.30
2017-07-22T14:19:43.729Z,27.00
2017-07-22T14:22:17.288Z,27.00
2017-07-22T14:24:50.954Z,27.30
2017-07-22T14:27:24.645Z,27.80
2017-07-22T14:29:59.290Z,27.60
2017-07-22T14:32:33.291Z,27.50
2017-07-22T14:35:09.336Z,27.70
2017-07-22T14:37:48.139Z,27.70
2017-07-22T14:40:30.618Z,27.90
2017-07-22T14:43:06.862Z,27.60
2017-07-22T14:45:48.267Z,27.70
2017-07-22T14:48:30.728Z,27.90
2017-07-22T14:51:09.693Z,27.80
2017-07-22T14:53:47.728Z,27.80
2017-07-22T14:56:22.420Z,28.20
2017-07-22T14:58:59.073Z,28.50
2017-07-22T15:01:38.481Z,28.40
2017-07-22T15:04:19.354Z,28.30
2017-07-22T15:06:55.228Z,28.20
2017-07-22T15:09:33.492Z,27.70
2017-07-22T15:12:13.639Z,27.40
2017-07-22T15:14:49.712Z,27.50
2017-07-22T15:17:24.534Z,27.90
2017-07-22T15:20:04.493Z,27.90
2017-07-22T15:22:43.345Z,28.40
2017-07-22T15:25:18.426Z,28.40
2017-07-22T15:27:58.285Z,28.50
2017-07-22T15:30:33.166Z,28.30
2017-07-22T15:33:10.256Z,28.40
2017-07-22T15:35:45.736Z,28.10
2017-07-22T15:38:20.678Z,28.10
2017-07-22T15:40:59.022Z,28.10
2017-07-22T15:43:37.959Z,28.30
2017-07-22T15:46:17.366Z,28.60
2017-07-22T15:49:00.761Z,28.50
2017-07-22T15:51:37.853Z,28.60
2017-07-22T15:54:17.145Z,28.60
2017-07-22T15:56:54.810Z,28.40
2017-07-22T16:02:26.041Z,28.70
2017-07-22T16:05:00.556Z,28.80
2017-07-22T16:07:34.404Z,28.50
2017-07-22T16:10:10.033Z,28.30
2017-07-22T16:12:44.444Z,28.40
2017-07-22T16:15:20.419Z,28.40
2017-07-22T16:18:00.835Z,28.20
2017-07-22T16:20:34.785Z,28.40
2017-07-22T16:23:09.117Z,28.70
2017-07-22T16:25:42.844Z,28.80
2017-07-22T16:28:18.343Z,28.80
2017-07-22T16:30:53.524Z,28.80
2017-07-22T16:33:27.956Z,28.60
2017-07-22T16:36:03.763Z,28.60
2017-07-22T16:38:37.430Z,28.60
2017-07-22T16:41:11.299Z,28.50
2017-07-22T16:43:45.009Z,28.40
2017-07-22T16:46:21.571Z,28.30
2017-07-22T16:48:56.263Z,28.10
2017-07-22T16:51:31.157Z,28.20
2017-07-22T16:54:05.121Z,27.80
2017-07-22T16:56:40.782Z,27.60
2017-07-22T16:59:16.716Z,27.40
2017-07-22T17:01:51.890Z,27.40
2017-07-22T17:04:26.102Z,27.50
2017-07-22T17:07:00.003Z,27.50
2017-07-22T17:09:34.621Z,27.30
2017-07-22T17:12:08.489Z,27.30
2017-07-22T17:15:05.663Z,27.30
2017-07-22T17:17:40.062Z,27.40
2017-07-22T17:20:18.970Z,27.30
2017-07-22T17:22:53.086Z,27.50
2017-07-22T17:25:28.278Z,27.50
2017-07-22T17:28:03.039Z,27.50
2017-07-22T17:30:37.276Z,27.50
2017-07-22T17:33:14.111Z,27.50
2017-07-22T17:35:47.953Z,27.50
2017-07-22T17:38:21.978Z,27.50
2017-07-22T17:40:55.800Z,27.60
2017-07-22T17:43:29.742Z,27.50
2017-07-22T17:46:03.468Z,27.50
2017-07-22T17:48:37.384Z,27.50
2017-07-22T17:51:11.424Z,27.30
2017-07-22T17:53:45.364Z,27.30
2017-07-22T17:56:19.445Z,27.20
2017-07-22T17:58:53.238Z,27.20
2017-07-22T18:01:27.255Z,27.00
2017-07-22T18:04:01.454Z,26.70
2017-07-22T18:06:36.159Z,26.50
2017-07-22T18:09:10.284Z,26.40
2017-07-22T18:11:44.193Z,26.40
2017-07-22T18:14:17.995Z,26.10
2017-07-22T18:16:51.821Z,25.90
2017-07-22T18:19:25.707Z,25.80
2017-07-22T18:22:00.705Z,25.60
2017-07-22T18:24:34.883Z,25.60
2017-07-22T18:27:08.702Z,25.50
2017-07-22T18:29:43.393Z,25.10
2017-07-22T18:32:18.242Z,25.10
2017-07-22T18:34:54.289Z,26.00
2017-07-22T18:37:27.765Z,26.00
2017-07-22T18:40:01.422Z,26.00
2017-07-22T18:42:34.797Z,26.00
2017-07-22T18:45:08.000Z,25.90
2017-07-22T18:47:41.311Z,25.60
2017-07-22T18:50:14.471Z,25.60
2017-07-22T18:52:47.674Z,25.50
2017-07-22T18:55:21.032Z,25.30
2017-07-22T18:57:55.146Z,25.20
2017-07-22T19:00:28.456Z,25.20
2017-07-22T19:03:01.704Z,25.10
2017-07-22T19:05:34.984Z,25.10
2017-07-22T19:08:08.045Z,25.00
2017-07-22T19:10:41.199Z,24.80
2017-07-22T19:13:14.516Z,24.80
2017-07-22T19:15:47.795Z,24.70
2017-07-22T19:18:20.907Z,24.60
2017-07-22T19:20:54.200Z,24.60
2017-07-22T19:23:27.365Z,24.40
2017-07-22T19:26:00.716Z,24.30
2017-07-22T19:28:33.916Z,24.30
2017-07-22T19:31:07.084Z,24.20
2017-07-22T19:33:40.384Z,24.20
2017-07-22T19:36:13.522Z,24.00
2017-07-22T19:38:46.768Z,24.00
2017-07-22T19:41:19.949Z,23.90
2017-07-22T19:43:53.241Z,23.70
2017-07-22T19:46:26.497Z,23.50
2017-07-22T19:48:59.825Z,23.60
2017-07-22T19:51:33.003Z,23.50
2017-07-22T19:54:06.198Z,23.20
2017-07-22T19:56:39.352Z,23.10
2017-07-22T19:59:12.532Z,22.90
2017-07-22T20:01:46.482Z,22.90
2017-07-22T20:04:20.402Z,22.80
2017-07-22T20:06:53.508Z,22.70
2017-07-22T20:09:26.639Z,22.80
2017-07-22T20:11:59.745Z,22.70
2017-07-22T20:14:33.890Z,22.30
2017-07-22T20:17:07.038Z,22.20
2017-07-22T20:19:40.161Z,22.20
2017-07-22T20:22:14.048Z,22.50
2017-07-22T20:24:47.233Z,22.40
2017-07-22T20:27:21.240Z,22.50
2017-07-22T20:29:55.295Z,22.50
2017-07-22T20:32:28.556Z,22.50
2017-07-22T20:35:02.520Z,22.50
2017-07-22T20:37:35.707Z,22.50
2017-07-22T20:40:09.023Z,22.40
2017-07-22T20:42:42.169Z,22.40
2017-07-22T20:45:15.445Z,22.30
2017-07-22T20:47:48.680Z,22.30
2017-07-22T20:50:21.809Z,22.20
2017-07-22T20:52:55.181Z,22.10
2017-07-22T20:55:28.339Z,22.10
2017-07-22T20:58:01.595Z,21.80
2017-07-22T21:00:35.506Z,21.80
2017-07-22T21:03:08.703Z,21.80
2017-07-22T21:05:41.971Z,21.80
2017-07-22T21:08:15.219Z,21.80
2017-07-22T21:10:48.456Z,21.60
2017-07-22T21:13:21.646Z,21.60
2017-07-22T21:15:54.852Z,21.60
2017-07-22T21:18:28.076Z,21.60
2017-07-22T21:21:01.422Z,21.50
2017-07-22T21:23:34.697Z,21.50
2017-07-22T21:26:07.966Z,21.50
2017-07-22T21:28:41.153Z,21.50
2017-07-22T21:31:14.687Z,21.50
2017-07-22T21:33:47.955Z,21.40
2017-07-22T21:36:21.331Z,21.40
2017-07-22T21:38:54.649Z,21.30
2017-07-22T21:41:27.783Z,21.30
2017-07-22T21:44:01.101Z,21.20
2017-07-22T21:46:34.227Z,21.20
2017-07-22T21:49:07.385Z,21.10
2017-07-22T21:51:40.712Z,21.10
2017-07-22T21:54:19.867Z,21.00
2017-07-22T21:56:53.468Z,21.00
2017-07-22T21:59:26.772Z,20.90
2017-07-22T22:02:00.051Z,20.90
2017-07-22T22:04:33.194Z,20.90
2017-07-22T22:07:06.335Z,20.90
2017-07-22T22:09:40.359Z,20.80
2017-07-22T22:12:15.105Z,20.80
2017-07-22T22:14:48.340Z,20.80
2017-07-22T22:17:21.624Z,20.90
2017-07-22T22:19:54.897Z,20.80
2017-07-22T22:22:28.023Z,20.80
2017-07-22T22:25:01.277Z,20.70
2017-07-22T22:27:34.685Z,20.60
2017-07-22T22:30:07.912Z,20.10
2017-07-22T22:32:41.175Z,19.90
2017-07-22T22:35:14.462Z,19.70
2017-07-22T22:37:47.795Z,19.90
2017-07-22T22:40:21.088Z,20.10
2017-07-22T22:42:54.318Z,20.20
2017-07-22T22:45:28.192Z,20.30
2017-07-22T22:48:01.498Z,20.20
2017-07-22T22:50:34.718Z,20.20
2017-07-22T22:53:07.897Z,20.20
2017-07-22T22:55:41.334Z,20.20
2017-07-22T22:58:15.200Z,20.20
2017-07-22T23:00:48.457Z,20.20
2017-07-22T23:03:22.530Z,20.10
2017-07-22T23:05:55.719Z,20.10
2017-07-22T23:08:29.839Z,20.10
2017-07-22T23:11:02.964Z,20.10
2017-07-22T23:13:36.171Z,19.90
2017-07-22T23:16:10.189Z,19.60
2017-07-22T23:18:43.517Z,19.60
2017-07-22T23:21:16.854Z,19.80
2017-07-22T23:23:50.188Z,19.90
2017-07-22T23:26:23.483Z,19.90
2017-07-22T23:28:56.815Z,19.90
2017-07-22T23:31:30.045Z,19.70
2017-07-22T23:34:03.975Z,19.70
2017-07-22T23:36:39.356Z,19.60
2017-07-22T23:39:13.553Z,19.30
2017-07-22T23:41:46.932Z,19.30
2017-07-22T23:47:10.845Z,19.50
2017-07-22T23:49:44.148Z,18.80
2017-07-22T23:52:17.352Z,18.60
2017-07-22T23:54:50.645Z,18.00
2017-07-22T23:57:23.884Z,18.50
2017-07-22T23:59:57.072Z,18.90
